Russelville, Illinois
Current Conditions -  °F | °C
As of 5:53 PM on Monday 24 Nov 2014 (Local Time) from KLWV Reporting Station
Broken Clouds Broken Clouds  
Wind Chill: 33°   Ceiling: 6000
Heat Index: 40°   Visibility: 10mi
Dew Point: 30°   Wind: 10mph
Humidity: 68%   Direction: 270°W
Pressure: 29.89"   Gusts: NA
Location:  38.7501°N, 87.6141°W
Report Text: KLWV 242353Z AUTO 27009KT 10SM BKN060 04/M01 A2989 RMK AO2 SLP124 T00441011 10067 20039 53041
Loading
Personal Weather Stations






























Interactive Weather Map New forecast layout! Learn more

10-Day Weather Forecast

Advertisements
Track Severe Weather on mobile